don't click here

Sonic Adventure (DX): Overall Rankings

Records: Times | Rings | Scores | Races | Bosses | Freestyle
Leaders: Times | Rings | Scores | Races | Bosses | Freestyle | Overall
Rank Player Percent Points Date
1 Sonicspeedruner 98.4% 294 07-22-24
2 drminus 96.5% 630 07-22-24
3 Gamepro011 96.5% 640 07-22-24
4 Coolfansonic 96.2% 685 07-22-24
5 DarkPolarNight 95.7% 786 07-22-24
6 Jawzun 91.6% 1548 07-22-24
7 Dashjump 90.0% 1844 07-22-24
8 Avento128bits 88.1% 2193 07-22-24
9 DarkspinesSonic 88.0% 2209 07-22-24
10 ike6252 87.7% 2262 07-22-24
11 F-Man 85.9% 2597 07-22-24
12 TheRealShadnic 83.8% 2980 07-22-24
13 HyperSonic7701 83.2% 3088 07-22-24
14 Nim 82.9% 3150 07-22-24
15 yoshifan 81.0% 3502 07-22-24
16 frankoredstrato 80.5% 3593 07-22-24
17 francisco 79.6% 3761 07-22-24
18 Marth 79.1% 3844 07-22-24
19 InferSaime 78.0% 4050 07-22-24
20 PfoSonic 77.5% 4148 07-22-24
21 Paragod 77.3% 4186 07-22-24
22 THC98 76.3% 4360 07-22-24
23 Stefan 73.8% 4824 07-22-24
24 andy120195 73.7% 4851 07-22-24
25 Dekuboy 72.8% 5001 07-22-24
26 RPGnutter 71.9% 5178 07-22-24
27 bertin 71.6% 5230 07-22-24
28 sonicam 69.6% 5607 07-22-24
29 chaos shadow 68.7% 5770 07-22-24
30 chainchump 64.6% 6532 07-22-24
31 Combo 63.6% 6712 07-22-24
32 SkyLights 62.4% 6929 07-22-24
33 xXMegaManXx 60.9% 7197 07-22-24
34 Diamond 60.6% 7260 07-22-24
35 CoEmpathy 58.5% 7646 07-22-24
36 Auriman1 58.3% 7687 07-22-24
37 GerbilSoft 58.2% 7705 07-22-24
38 OmegaDJ 58.1% 7714 07-22-24
39 magnum12 57.5% 7836 07-22-24
40 Thorn 55.2% 8263 07-22-24
41 P1 Pause 55.1% 8277 07-22-24
42 mike89 54.1% 8463 07-22-24
43 Dave Cramer 52.3% 8801 07-22-24
44 Groudon199 52.0% 8839 07-22-24
45 Parax 51.9% 8866 07-22-24
46 SPVLABS 50.9% 9052 07-22-24
47 Shadow Jacky 50.8% 9063 07-22-24
48 Zurggriff 47.5% 9672 07-22-24
49 Niczur 47.0% 9770 07-22-24
50 Psymar 45.8% 9984 07-22-24
51 Arch 45.0% 10132 07-22-24
52 Chao_Fan 44.3% 10277 07-22-24
53 mauserman 44.1% 10310 07-22-24
54 Quartz 43.0% 10503 07-22-24
55 teamblackarms 42.5% 10600 07-22-24
56 danieldude 42.3% 10632 07-22-24
57 Psyknux 42.1% 10679 07-22-24
58 James_Bertolli 41.3% 10814 07-22-24
59 Cyan Ryan 41.2% 10832 07-22-24
60 NintenDan 41.1% 10855 07-22-24
61 Ring Rush 40.5% 10969 07-22-24
62 Turbos 40.3% 11007 07-22-24
63 Webber3000 40.3% 11011 07-22-24
64 Fr3nZy 40.3% 11012 07-22-24
65 Cream147 40.0% 11061 07-22-24
66 videogamemaster777 39.7% 11115 07-22-24
67 Siavash Tazari 39.7% 11126 07-22-24
68 buddychaos0415 39.3% 11198 07-22-24
69 ethmar 39.2% 11215 07-22-24
70 SadisticMystic 38.9% 11262 07-22-24
71 eggFL 37.7% 11495 07-22-24
72 Calfd 37.4% 11540 07-22-24
73 SB737 36.3% 11739 07-22-24
74 Modest 35.7% 11851 07-22-24
75 supersonic465 35.7% 11858 07-22-24
76 supersonicfan 35.1% 11961 07-22-24
77 FuzZerd 34.0% 12166 07-22-24
78 Aitamen 33.5% 12255 07-22-24
79 BigAL49 33.1% 12327 07-22-24
80 elecmouse101 33.0% 12351 07-22-24
81 Austinf 32.9% 12367 07-22-24
82 metanightmare22 31.9% 12560 07-22-24
83 dabestgamer 31.6% 12619 07-22-24
84 MiStEr_ShAoLiN 31.3% 12673 07-22-24
85 Mastakirby 31.0% 12720 07-22-24
86 Andrea Ritsu 30.8% 12767 07-22-24
87 itsPersonnal 30.7% 12778 07-22-24
88 Cybrax 30.0% 12907 07-22-24
89 WeegeeZV 29.8% 12939 07-22-24
90 SilvertheAlmighty 29.6% 12987 07-22-24
91 JamminX42 29.4% 13016 07-22-24
92 VMU Player Banned 28.1% 13262 07-22-24
93 Omega Rafael Santos 27.5% 13376 07-22-24
94 Staf 27.1% 13450 07-22-24
95 The T 26.7% 13516 07-22-24
96 EngiNerd 26.5% 13561 07-22-24
97 Hipertails12 26.1% 13619 07-22-24
98 lordmetalsonic 26.1% 13627 07-22-24
99 Pokemonmaster888 25.7% 13697 07-22-24
100 welldooder64 25.5% 13730 07-22-24
101 GreatStar 25.4% 13755 07-22-24
102 The Great Lord Mick 25.1% 13810 07-22-24
103 Sondow 25.0% 13836 07-22-24
104 LinksDarkArrows 24.8% 13861 07-22-24
105 Wither 24.3% 13965 07-22-24
106 Skylace 24.1% 13995 07-22-24
107 a_moustache 23.5% 14108 07-22-24
108 Rolken 22.5% 14300 07-22-24
109 Xia 20.9% 14582 07-22-24
110 Spinballwizard 20.9% 14588 07-22-24
111 Kogen Player Banned 20.8% 14602 07-22-24
112 Don 20.7% 14619 07-22-24
113 Game_Complete 20.6% 14640 07-22-24
114 Miles9999 20.5% 14652 07-22-24
115 iden1 20.5% 14667 07-22-24
116 f0rever_zer0 20.4% 14673 07-22-24
117 Twilisailor 20.4% 14684 07-22-24
118 Cutiefox 20.2% 14716 07-22-24
119 andres430 19.5% 14844 07-22-24
120 Cruizer 19.5% 14849 07-22-24
121 SADXTryHard 19.3% 14877 07-22-24
122 iSonicKid2K 19.3% 14888 07-22-24
123 N 18.8% 14982 07-22-24
124 GarnetPrincess 18.5% 15020 07-22-24
125 AxlThunder 18.5% 15023 07-22-24
126 knuckles_sonic8 18.0% 15130 07-22-24
127 KinkyCadence 17.6% 15192 07-22-24
128 Team_Yoshi 17.5% 15210 07-22-24
129 The Knuckles Chao 17.4% 15223 07-22-24
130 Termon 17.3% 15254 07-22-24
131 LittleBigness 17.2% 15276 07-22-24
132 SonicWinDX 17.1% 15279 07-22-24
133 Zethor 16.9% 15325 07-22-24
134 FoxBoy 16.9% 15326 07-22-24
135 Drakodan 16.3% 15427 07-22-24
136 Sonic Singularity 15.0% 15671 07-22-24
137 paulie9990 14.5% 15762 07-22-24
138 SilverSonic 14.0% 15859 07-22-24
139 sonicd5 13.9% 15873 07-22-24
140 MPit08 13.7% 15912 07-22-24
141 Mo Player Banned 13.6% 15940 07-22-24
142 koinu93 13.3% 15996 07-22-24
143 Cod4Scopes 13.1% 16023 07-22-24
144 Hunters13 12.9% 16060 07-22-24
145 Jerzia 12.9% 16062 07-22-24
146 HyperSonic64 12.8% 16090 07-22-24
147 Chawkk 12.6% 16117 07-22-24
148 booo95 12.6% 16118 07-22-24
149 R3FR4G 12.5% 16143 07-22-24
150 SuperSonic101 12.4% 16150 07-22-24
151 Maxinfamily 12.4% 16158 07-22-24
152 Kanimayo_Jp 12.1% 16204 07-22-24
153 PsyBorg 12.1% 16214 07-22-24
154 Flying Fox 12.0% 16232 07-22-24
155 LilZero 11.9% 16238 07-22-24
156 BrokenArthritis 11.9% 16240 07-22-24
157 Therio 11.6% 16300 07-22-24
158 sonicspeed 11.2% 16371 07-22-24
159 SonicAD 11.1% 16388 07-22-24
160 AlphaDolphin 11.1% 16397 07-22-24
161 douglas 11.0% 16420 07-22-24
162 thewaytodawnnn 10.9% 16425 07-22-24
163 ModifiedMonkee 10.9% 16435 07-22-24
164 Matt_TY 10.8% 16453 07-22-24
165 SuperBlitzCraig 10.3% 16535 07-22-24
166 joecoolgames 10.3% 16543 07-22-24
167 Cooljay 10.1% 16570 07-22-24
168 SeaWolf 10.1% 16574 07-22-24
169 videogamer1014 9.9% 16622 07-22-24
170 AC-Tygo 9.7% 16662 07-22-24
171 welshmoose05 9.6% 16665 07-22-24
172 OddCook 9.4% 16711 07-22-24
173 crazy1993 9.3% 16720 07-22-24
173 TFEC Headshot 9.3% 16720 07-22-24
175 Mcshuggets 9.3% 16730 07-22-24
176 Mariobutch 9.2% 16753 07-22-24
177 Irregular Zero 8.9% 16794 07-22-24
178 nuckrieg 8.8% 16820 07-22-24
179 niscool 8.8% 16825 07-22-24
180 Shadowthegreat 8.5% 16878 07-22-24
181 superjupi 8.5% 16879 07-22-24
182 SirTobbii 8.4% 16884 07-22-24
183 Powerjohn25 8.3% 16914 07-22-24
184 iarebored 8.2% 16928 07-22-24
184 SaviourDC 8.2% 16928 07-22-24
184 sonamyfan666 8.2% 16928 07-22-24
187 Badlex727 8.2% 16934 07-22-24
188 Yoshipuff 8.1% 16946 07-22-24
189 SonicKnuckles 8.1% 16956 07-22-24
190 Werey 8.0% 16970 07-22-24
191 adf 7.7% 17018 07-22-24
192 ArcticDragon 7.5% 17065 07-22-24
193 Megaman EXE565 7.4% 17070 07-22-24
194 Platformer 7.2% 17121 07-22-24
195 FocusSight64 7.0% 17143 07-22-24
196 Swift Hobo 7.0% 17144 07-22-24
197 timpkmn89 7.0% 17151 07-22-24
198 Vicklaw 6.9% 17163 07-22-24
199 Rickyman48 6.8% 17190 07-22-24
199 wheatrich 6.8% 17190 07-22-24
201 Sm4sh 6.7% 17215 07-22-24
202 KitsuneYamaro 6.5% 17236 07-22-24
203 ArthurVGCP 6.4% 17255 07-22-24
204 Tethys 6.4% 17263 07-22-24
205 Triseena 6.3% 17286 07-22-24
206 Starlight Sable 6.2% 17293 07-22-24
207 CyberShadow 6.2% 17295 07-22-24
208 Destroyer121121 6.2% 17307 07-22-24
209 slade23 6.1% 17311 07-22-24
210 dShadow 6.1% 17324 07-22-24
211 IsisDazs 6.1% 17326 07-22-24
212 BlankTH 5.8% 17376 07-22-24
213 Monkeh 5.6% 17401 07-22-24
214 SonicU260 5.4% 17439 07-22-24
214 Swinkly 5.4% 17439 07-22-24
216 Richied 5.4% 17449 07-22-24
217 DaDude 5.4% 17451 07-22-24
218 Crispian 5.4% 17452 07-22-24
219 Zip 5.2% 17477 07-22-24
220 VeritasDL 5.1% 17503 07-22-24
221 tal39h 4.9% 17537 07-22-24
222 Kirbymon30 4.9% 17539 07-22-24
223 ALundstrom10 4.8% 17549 07-22-24
224 soniccoloursunleashed 4.7% 17582 07-22-24
225 Drflash55 4.6% 17598 07-22-24
226 Bass 4.5% 17610 07-22-24
227 Yish 4.5% 17617 07-22-24
228 neaolas 4.4% 17625 07-22-24
229 zapp 4.4% 17632 07-22-24
230 UninspiredUsername 4.4% 17633 07-22-24
231 superiorsonic 4.3% 17641 07-22-24
232 Sonicsuperstar1 4.3% 17642 07-22-24
233 gamefreak1292 4.3% 17650 07-22-24
234 Sora_yx 4.1% 17678 07-22-24
235 Chaos_Overlord 3.9% 17724 07-22-24
236 TakaRikka 3.8% 17735 07-22-24
237 Valfore 3.8% 17739 07-22-24
238 Dage4Aquatic 3.7% 17752 07-22-24
239 ShinigamiMachine 3.7% 17768 07-22-24
240 Regano1000 3.5% 17791 07-22-24
241 MK 3.5% 17800 07-22-24
242 Ace747 3.4% 17821 07-22-24
243 Jua Rever 3.2% 17845 07-22-24
244 Sithwarrior26 3.1% 17872 07-22-24
245 HHNNBBHHN 3.0% 17886 07-22-24
245 Illidan 3.0% 17886 07-22-24
247 Brian_pso 3.0% 17888 07-22-24
248 Venick409 3.0% 17889 07-22-24
249 nman36 3.0% 17896 07-22-24
250 Alberto 2.8% 17924 07-22-24
250 Egor305 2.8% 17924 07-22-24
252 ingx24 2.8% 17926 07-22-24
253 TheChaosEmeraIds 2.8% 17927 07-22-24
254 Nickson98 2.7% 17939 07-22-24
255 FSSRandomvids 2.7% 17943 07-22-24
256 SkyBon 2.7% 17945 07-22-24
257 dekki1234 2.6% 17954 07-22-24
258 Fozer 2.6% 17964 07-22-24
259 sonic29887 2.6% 17966 07-22-24
260 Aiko 2.5% 17974 07-22-24
260 Colomb_30 2.5% 17974 07-22-24
262 TheUltraBlur 2.5% 17977 07-22-24
263 1stKirbyever 2.5% 17985 07-22-24
264 TimTH 2.4% 17997 07-22-24
265 Th4tN1nj4Turtl3 2.2% 18029 07-22-24
266 Cort_pso 2.2% 18036 07-22-24
267 ieatatsonic 2.2% 18041 07-22-24
268 Doom-9 2.1% 18047 07-22-24
269 Mariosonic15 2.1% 18054 07-22-24
270 MStitomix 2.0% 18065 07-22-24
271 HermitHelmet 2.0% 18068 07-22-24
272 arcfx1985 2.0% 18075 07-22-24
273 SuperSonic71087 1.9% 18089 07-22-24
274 Got4n 1.9% 18090 07-22-24
274 Questionguy555 1.9% 18090 07-22-24
276 Artie 1.9% 18096 07-22-24
277 Jose_15 1.9% 18100 07-22-24
278 djmat 1.8% 18110 07-22-24
279 SuperSonicfan9595 1.8% 18115 07-22-24
280 sonicandamy 1.7% 18130 07-22-24
281 LancexExWx 1.6% 18140 07-22-24
282 Paixii 1.6% 18145 07-22-24
283 son1cgu1tar 1.6% 18148 07-22-24
284 Heroes_Hater 1.5% 18162 07-22-24
285 BallzeH 1.5% 18166 07-22-24
286 Jamixesa 1.5% 18172 07-22-24
287 Mankster101 1.5% 18173 07-22-24
288 BecauseWarAnvil 1.4% 18179 07-22-24
289 Xandre69 1.4% 18180 07-22-24
290 Shanekilz 1.4% 18184 07-22-24
291 SpiritDragon1995 1.4% 18187 07-22-24
292 Crydio 1.4% 18188 07-22-24
293 MarewBFN 1.3% 18206 07-22-24
294 stanski 1.3% 18207 07-22-24
295 Sonique Hedgehog 1.2% 18214 07-22-24
296 Blue Infamy 1.2% 18225 07-22-24
297 p0ker 1.2% 18227 07-22-24
298 ErrortheCucco 1.1% 18236 07-22-24
299 Rikum22 1.1% 18239 07-22-24
300 Arthas 1.1% 18241 07-22-24
301 sonic1001 1.1% 18248 07-22-24
302 AJSIV 1.0% 18253 07-22-24
303 syco1098 1.0% 18254 07-22-24
304 IDGeek121 1.0% 18255 07-22-24
305 Sonic the Hedgehod16 1.0% 18256 07-22-24
306 WingedInsignia 1.0% 18259 07-22-24
307 ASINISTERTACO 1.0% 18262 07-22-24
308 sonicfan9 0.9% 18268 07-22-24
309 BlackArmsShadow 0.9% 18279 07-22-24
310 themachoman202 0.9% 18280 07-22-24
311 shadowblast63 Player Banned 0.8% 18287 07-22-24
312 Fivavoa 0.8% 18289 07-22-24
313 Mr. Jones 0.8% 18291 07-22-24
314 Ben1502 0.8% 18292 07-22-24
314 MastaToken 0.8% 18292 07-22-24
316 darkstarblaze 0.8% 18294 07-22-24
316 TommyeAsY 0.8% 18294 07-22-24
318 Greham Adelphis 0.8% 18295 07-22-24
319 ptorflaxendrosis 0.8% 18298 07-22-24
320 FlandreScarlet9999vr 0.8% 18300 07-22-24
320 Gvozdevik 0.8% 18300 07-22-24
322 Knuckles 0.8% 18304 07-22-24
323 Zeldocto 0.7% 18305 07-22-24
324 BeeAwwb 0.7% 18311 07-22-24
325 KaM Mark MaK 0.7% 18313 07-22-24
326 ShadouZaHejjihoggu 0.7% 18314 07-22-24
327 Sonic The Star 0.6% 18324 07-22-24
328 darkersupershadic 0.6% 18325 07-22-24
329 Sogeking 0.6% 18327 07-22-24
330 Sonic62 0.6% 18330 07-22-24
331 Sarger001 0.6% 18333 07-22-24
332 Grady219 0.6% 18334 07-22-24
333 dragondragon18 0.6% 18335 07-22-24
333 SonicK100 0.6% 18335 07-22-24
335 Shadygamerfreak 0.6% 18337 07-22-24
336 Jawaah 0.6% 18338 07-22-24
337 SpinDashMaster 0.6% 18341 07-22-24
338 Antek 0.5% 18343 07-22-24
339 Klaus 0.5% 18345 07-22-24
340 SilverK 0.5% 18348 07-22-24
341 BioShadow 0.5% 18349 07-22-24
342 Videogamer123 0.5% 18359 07-22-24
343 IcKY 0.4% 18362 07-22-24
344 oTaiIilLsS 0.4% 18369 07-22-24
345 isaihtb11 0.4% 18371 07-22-24
346 Mad Andy 0.4% 18372 07-22-24
347 OhNoes! 0.4% 18374 07-22-24
348 zaktu40 0.4% 18375 07-22-24
349 S-MS32X-S 0.4% 18377 07-22-24
350 gaara1234 0.4% 18378 07-22-24
351 gamed00d 0.3% 18384 07-22-24
352 Mister_Slick 0.3% 18390 07-22-24
353 Sonic06Fan 0.3% 18393 07-22-24
354 Rush Hero 0.3% 18395 07-22-24
355 ChaosNexuss 0.3% 18396 07-22-24
356 SonicMega167 0.2% 18401 07-22-24
357 Iwannabelink 0.2% 18402 07-22-24
358 sonknuck23 0.2% 18405 07-22-24
359 DanielTheFalcon 0.2% 18412 07-22-24
360 gamer1245 0.2% 18413 07-22-24
361 Burningskull123 0.1% 18420 07-22-24
362 Sonicontherun 0.1% 18431 07-22-24
363 Lil_Dude 0.1% 18432 07-22-24
364 antiwwe 0.0% 18437 07-22-24
365 Genuine Hedgehog 0.0% 18440 07-22-24
366 Cbwade15 0.0% 18441 07-22-24
367 Tyrouble 0.0% 18445 07-22-24
368 MakoHNM 0.0% 18452 07-22-24
368 MegabombBlade 0.0% 18452 07-22-24
368 neji_hyuuga 0.0% 18452 07-22-24
368 Over 0.0% 18452 07-22-24
368 sdj6707 Player Banned 0.0% 18452 07-22-24
368 Tran Sonic Fan Player Banned 0.0% 18452 07-22-24

This page is using the New Data Table System. [FUTURE]

Game ID: 3 | Category ID: 10
Hits: 89,426 | Hits This Month: 89 | DB Calls: 21 | Mem Usage: 1.00 MB | Time: 0.05s | Printable

The Sonic Center v3.9
Copyright 2003-2011 by The Sonic Center Team.